Time;durP1;ratioP1;P1;durP2;ratioP2;P2;SDS_P1;SDS_P2;PMS_P1;PMS_P2;Temp;Humidity;BMP_temperature;BMP_pressure;BME280_temperature;BME280_humidity;BME280_pressure;Samples;Min_cycle;Max_cycle;Signal;HPM_P1;HPM_P2
2023/09/20 00:01:53;;;;;;;6.03;3.58;;;22.90;99.90;;;;;;5094824;27;20038;-80
2023/09/20 00:04:20;;;;;;;10.13;4.95;;;23.10;99.90;;;;;;5068426;27;20127;-78
2023/09/20 00:06:46;;;;;;;6.25;3.70;;;22.90;99.90;;;;;;5119632;27;20550;-82
2023/09/20 00:09:14;;;;;;;9.65;4.18;;;22.90;99.90;;;;;;5080520;28;20044;-83
2023/09/20 00:11:40;;;;;;;6.40;4.00;;;23.10;99.90;;;;;;5072266;27;20066;-81
2023/09/20 00:14:06;;;;;;;7.43;3.95;;;23.00;99.90;;;;;;5075479;28;20500;-80
2023/09/20 00:16:32;;;;;;;6.30;3.80;;;22.90;99.90;;;;;;5087893;27;20047;-81
2023/09/20 00:18:58;;;;;;;5.63;3.65;;;23.00;99.90;;;;;;5079952;28;20559;-86
2023/09/20 00:21:27;;;;;;;9.45;3.65;;;23.10;99.90;;;;;;5076614;27;20106;-80
2023/09/20 00:23:53;;;;;;;7.45;3.72;;;23.10;99.90;;;;;;5083243;27;20031;-83
2023/09/20 00:26:18;;;;;;;7.82;4.00;;;22.90;99.90;;;;;;5069614;27;20356;-80
2023/09/20 00:28:48;;;;;;;8.52;4.13;;;23.10;99.90;;;;;;5095493;27;20047;-80
2023/09/20 00:31:17;;;;;;;9.73;4.57;;;22.90;99.90;;;;;;5068974;27;20693;-79
2023/09/20 00:33:44;;;;;;;8.30;4.35;;;23.10;99.90;;;;;;5096032;28;20031;-79
2023/09/20 00:36:17;;;;;;;7.07;4.38;;;22.90;99.90;;;;;;5070466;28;20083;-82
2023/09/20 00:38:45;;;;;;;9.25;4.50;;;23.10;99.90;;;;;;5077772;27;20031;-82
2023/09/20 00:41:11;;;;;;;8.00;4.60;;;22.90;99.90;;;;;;5093084;28;20181;-76
2023/09/20 00:43:37;;;;;;;11.10;5.05;;;23.00;99.90;;;;;;5063194;28;20044;-79
2023/09/20 00:46:04;;;;;;;11.30;4.32;;;22.90;99.90;;;;;;5070532;28;20050;-81
2023/09/20 00:48:31;;;;;;;10.02;4.90;;;22.90;99.90;;;;;;5077821;28;20034;-79
2023/09/20 00:50:57;;;;;;;11.35;5.35;;;22.80;99.90;;;;;;5062715;28;20041;-79
2023/09/20 00:53:24;;;;;;;11.15;4.70;;;23.10;99.90;;;;;;5094275;28;20039;-81
2023/09/20 00:55:50;;;;;;;6.88;4.65;;;23.10;99.90;;;;;;5073761;28;20058;-81
2023/09/20 00:58:19;;;;;;;11.18;5.03;;;23.10;99.90;;;;;;5075285;28;20031;-78
2023/09/20 01:00:45;;;;;;;11.02;5.43;;;23.10;99.90;;;;;;5095601;28;20609;-81
2023/09/20 01:03:17;;;;;;;10.27;4.25;;;22.90;99.90;;;;;;5087171;27;20509;-79
2023/09/20 01:05:43;;;;;;;12.52;5.20;;;23.10;99.90;;;;;;5080131;27;21606;-82
2023/09/20 01:08:09;;;;;;;9.95;4.80;;;23.10;99.90;;;;;;5082960;27;20035;-80
2023/09/20 01:10:38;;;;;;;12.00;4.63;;;23.00;99.90;;;;;;5089459;27;20080;-80
2023/09/20 01:13:06;;;;;;;9.50;5.18;;;23.00;99.90;;;;;;5084749;27;20039;-82
2023/09/20 01:15:34;;;;;;;10.05;5.15;;;23.00;99.90;;;;;;5106222;27;20116;-81
2023/09/20 01:18:01;;;;;;;11.43;4.40;;;23.10;99.90;;;;;;5097413;27;20051;-80
2023/09/20 01:20:28;;;;;;;7.30;4.20;;;23.10;99.90;;;;;;5069772;27;20426;-82
2023/09/20 01:23:00;;;;;;;10.27;4.88;;;23.10;99.90;;;;;;5081615;28;20042;-81
2023/09/20 01:25:32;;;;;;;9.45;4.15;;;23.10;99.90;;;;;;5096363;28;20040;-79
2023/09/20 01:27:59;;;;;;;12.75;4.68;;;23.10;99.90;;;;;;5120718;27;20530;-82
2023/09/20 01:30:32;;;;;;;11.98;5.13;;;23.20;99.90;;;;;;5085397;27;20055;-81
2023/09/20 01:33:01;;;;;;;10.07;4.43;;;23.00;99.90;;;;;;5086848;27;20028;-81
2023/09/20 01:35:29;;;;;;;9.10;4.53;;;23.10;99.90;;;;;;5084919;27;20424;-82
2023/09/20 01:37:55;;;;;;;9.23;4.15;;;23.10;99.90;;;;;;5079701;27;20039;-81
2023/09/20 01:40:26;;;;;;;8.98;4.10;;;23.20;99.90;;;;;;5095902;28;20043;-82
2023/09/20 01:42:59;;;;;;;8.48;4.15;;;23.20;99.90;;;;;;5080163;27;21759;-80
2023/09/20 01:45:26;;;;;;;9.65;4.10;;;23.00;99.90;;;;;;5097112;27;20065;-84
2023/09/20 01:48:08;;;;;;;11.32;4.32;;;23.10;99.90;;;;;;5069185;27;20088;-81
2023/09/20 01:50:34;;;;;;;8.73;4.10;;;23.00;99.90;;;;;;5095897;28;20054;-84
2023/09/20 01:53:05;;;;;;;9.27;3.72;;;23.20;99.90;;;;;;5079305;27;20045;-81
2023/09/20 01:55:31;;;;;;;9.13;3.78;;;23.00;99.90;;;;;;5079105;27;20028;-81
2023/09/20 01:58:05;;;;;;;10.07;3.80;;;23.00;99.90;;;;;;5072822;27;20031;-82
2023/09/20 02:00:38;;;;;;;8.27;3.90;;;23.10;99.90;;;;;;5103752;27;20526;-81
2023/09/20 02:03:13;;;;;;;9.93;3.88;;;23.00;99.90;;;;;;5085504;27;20047;-82
2023/09/20 02:05:40;;;;;;;8.50;3.42;;;23.10;99.90;;;;;;5098276;27;20035;-80
2023/09/20 02:08:08;;;;;;;7.22;3.33;;;23.20;99.90;;;;;;5094688;27;20135;-80
2023/09/20 02:10:36;;;;;;;9.65;4.18;;;23.10;99.90;;;;;;5077821;28;20114;-80
2023/09/20 02:13:03;;;;;;;9.85;3.60;;;23.20;99.90;;;;;;5094576;27;20128;-80
2023/09/20 02:15:31;;;;;;;9.32;4.00;;;23.20;99.90;;;;;;5075482;27;20055;-80
2023/09/20 02:17:57;;;;;;;9.93;3.42;;;23.30;99.90;;;;;;5081081;28;20051;-82
2023/09/20 02:20:30;;;;;;;8.68;3.95;;;23.30;99.90;;;;;;5080677;27;20043;-80
2023/09/20 02:22:55;;;;;;;9.60;3.90;;;23.20;99.90;;;;;;5097955;27;20103;-81
2023/09/20 02:25:24;;;;;;;11.55;3.92;;;23.30;99.90;;;;;;5095044;28;20491;-81
2023/09/20 02:27:52;;;;;;;7.20;3.35;;;23.30;99.90;;;;;;5063592;27;20046;-80
2023/09/20 02:30:24;;;;;;;7.63;3.97;;;23.30;99.90;;;;;;5093868;27;20039;-82
2023/09/20 02:32:52;;;;;;;6.50;2.92;;;23.20;99.90;;;;;;5080470;27;20043;-80
2023/09/20 02:35:19;;;;;;;9.30;3.63;;;23.30;99.90;;;;;;5073084;27;20039;-81
2023/09/20 02:37:46;;;;;;;8.70;3.60;;;23.20;99.90;;;;;;5086944;27;20069;-82
2023/09/20 02:40:19;;;;;;;7.70;3.28;;;23.30;99.90;;;;;;5088443;27;20046;-80
2023/09/20 02:42:52;;;;;;;8.00;4.20;;;23.30;99.90;;;;;;5083402;27;20361;-81
2023/09/20 02:45:19;;;;;;;6.97;2.95;;;23.30;99.90;;;;;;5082502;27;20107;-81
2023/09/20 02:47:48;;;;;;;9.10;3.80;;;23.20;99.90;;;;;;5096464;27;20044;-79
2023/09/20 02:50:19;;;;;;;6.50;3.47;;;23.40;99.90;;;;;;5080349;27;20031;-79
2023/09/20 02:52:47;;;;;;;6.75;3.30;;;23.40;99.90;;;;;;5076576;28;20028;-80
2023/09/20 02:55:17;;;;;;;7.15;3.40;;;23.30;99.90;;;;;;5079724;27;20032;-80
2023/09/20 02:57:50;;;;;;;6.82;3.15;;;23.30;99.90;;;;;;5074508;27;20070;-78
2023/09/20 03:00:21;;;;;;;9.68;4.45;;;23.20;99.90;;;;;;5082734;27;20031;-80
2023/09/20 03:02:51;;;;;;;9.55;3.22;;;23.40;99.90;;;;;;5100391;28;20039;-81
2023/09/20 03:05:21;;;;;;;7.85;3.30;;;23.60;99.90;;;;;;5077510;27;20097;-80
2023/09/20 03:07:49;;;;;;;6.50;3.08;;;23.40;99.90;;;;;;5079519;27;20055;-81
2023/09/20 03:10:19;;;;;;;7.05;2.95;;;23.40;99.90;;;;;;5082314;27;20039;-79
2023/09/20 03:12:57;;;;;;;7.82;3.80;;;23.40;99.90;;;;;;5094386;27;20074;-81
2023/09/20 03:15:25;;;;;;;8.95;3.92;;;23.30;99.90;;;;;;5088257;27;20051;-81
2023/09/20 03:18:06;;;;;;;7.70;3.60;;;23.30;99.90;;;;;;5082725;27;20043;-81
2023/09/20 03:20:35;;;;;;;7.65;3.67;;;23.30;99.90;;;;;;5079269;27;20067;-80
2023/09/20 03:23:04;;;;;;;9.88;3.60;;;23.30;99.90;;;;;;5077120;28;20063;-84
2023/09/20 03:25:36;;;;;;;5.85;3.63;;;23.40;99.90;;;;;;5062064;28;20031;-81
2023/09/20 03:28:03;;;;;;;8.07;3.20;;;23.30;99.90;;;;;;5099511;27;20043;-82
2023/09/20 03:30:31;;;;;;;7.63;3.42;;;23.30;99.90;;;;;;5094610;27;20070;-83
2023/09/20 03:32:58;;;;;;;5.85;3.35;;;23.40;99.90;;;;;;5105369;28;20050;-82
2023/09/20 03:35:24;;;;;;;6.22;3.30;;;23.30;99.90;;;;;;5087106;28;20085;-80
2023/09/20 03:37:50;;;;;;;10.15;3.10;;;23.30;99.90;;;;;;5092308;27;20040;-80
2023/09/20 03:40:21;;;;;;;6.35;3.25;;;23.30;99.90;;;;;;5079824;27;20032;-81
2023/09/20 03:42:48;;;;;;;7.82;3.65;;;23.40;99.90;;;;;;5077447;27;20671;-81
2023/09/20 03:45:15;;;;;;;6.90;2.80;;;23.30;99.90;;;;;;5095156;27;20110;-80
2023/09/20 03:47:41;;;;;;;6.43;3.25;;;23.20;99.90;;;;;;5096910;27;20041;-80
2023/09/20 03:50:09;;;;;;;9.48;3.22;;;23.30;99.90;;;;;;5069093;27;20047;-80
2023/09/20 03:52:37;;;;;;;6.43;3.75;;;23.30;99.90;;;;;;5070431;28;20039;-82
2023/09/20 03:55:03;;;;;;;7.22;3.35;;;23.30;99.90;;;;;;5070856;28;20494;-84
2023/09/20 03:57:29;;;;;;;5.88;3.10;;;23.30;99.90;;;;;;5061898;28;20036;-82
2023/09/20 03:59:58;;;;;;;8.38;3.47;;;23.30;99.90;;;;;;5068126;28;20049;-81
2023/09/20 04:02:24;;;;;;;7.22;3.30;;;23.20;99.90;;;;;;5080117;27;20038;-81
2023/09/20 04:04:53;;;;;;;6.57;3.25;;;23.20;99.90;;;;;;5082746;27;20871;-77
2023/09/20 04:07:23;;;;;;;9.10;4.00;;;23.30;99.90;;;;;;5082374;27;20035;-82
2023/09/20 04:09:50;;;;;;;8.68;3.42;;;23.40;99.90;;;;;;5077613;27;20070;-83
2023/09/20 04:12:15;;;;;;;8.48;3.65;;;23.20;99.90;;;;;;5101013;27;20088;-81
2023/09/20 04:14:44;;;;;;;6.57;3.53;;;23.30;99.90;;;;;;5079454;27;20714;-82
2023/09/20 04:17:10;;;;;;;5.72;3.13;;;23.30;99.90;;;;;;5071238;27;20078;-80
2023/09/20 04:19:40;;;;;;;6.95;3.72;;;23.30;99.90;;;;;;5081848;27;20054;-81
2023/09/20 04:22:06;;;;;;;5.00;3.05;;;23.40;99.90;;;;;;5075555;28;20050;-84
2023/09/20 04:24:33;;;;;;;7.03;2.97;;;23.20;99.90;;;;;;5067740;28;20155;-84
2023/09/20 04:26:59;;;;;;;9.00;3.75;;;23.30;99.90;;;;;;5068341;28;20584;-83
2023/09/20 04:29:28;;;;;;;11.10;4.40;;;23.30;99.90;;;;;;5063845;27;20382;-82
2023/09/20 04:31:55;;;;;;;11.07;3.45;;;23.20;99.90;;;;;;5099792;27;20059;-83
2023/09/20 04:34:21;;;;;;;7.25;3.60;;;23.30;99.90;;;;;;5080761;28;20039;-81
2023/09/20 04:36:47;;;;;;;8.68;3.63;;;23.20;99.90;;;;;;5080163;28;20423;-81
2023/09/20 04:39:14;;;;;;;11.00;3.85;;;23.20;99.90;;;;;;5078508;28;20074;-80
2023/09/20 04:41:40;;;;;;;8.20;3.95;;;23.10;99.90;;;;;;5087166;28;20067;-81
2023/09/20 04:44:07;;;;;;;9.13;3.28;;;23.10;99.90;;;;;;5097169;28;20532;-80
2023/09/20 04:46:35;;;;;;;9.18;3.65;;;22.90;99.90;;;;;;5075801;28;20122;-82
2023/09/20 04:49:01;;;;;;;11.40;3.38;;;23.00;99.90;;;;;;5118081;28;20035;-82
2023/09/20 04:51:26;;;;;;;5.40;3.20;;;22.90;99.90;;;;;;5095918;28;20426;-80
2023/09/20 04:53:53;;;;;;;7.32;3.47;;;22.90;99.90;;;;;;5094757;28;20040;-81
2023/09/20 04:56:19;;;;;;;7.00;4.22;;;22.80;99.90;;;;;;5056395;28;20042;-78
2023/09/20 04:58:44;;;;;;;9.82;4.53;;;22.80;99.90;;;;;;5098665;28;20491;-82
2023/09/20 05:01:11;;;;;;;7.93;3.83;;;22.70;99.90;;;;;;5069964;28;20135;-78
2023/09/20 05:03:39;;;;;;;5.85;3.50;;;22.70;99.90;;;;;;5081719;28;20420;-79
2023/09/20 05:06:05;;;;;;;7.32;3.65;;;22.70;99.90;;;;;;5074389;28;20127;-81
2023/09/20 05:08:32;;;;;;;13.73;4.07;;;22.70;99.90;;;;;;5072672;28;20031;-81
2023/09/20 05:10:57;;;;;;;7.13;4.07;;;22.80;99.90;;;;;;5098342;28;20035;-79
2023/09/20 05:13:23;;;;;;;7.30;3.58;;;22.60;99.90;;;;;;5081246;28;20035;-79
2023/09/20 05:15:52;;;;;;;8.35;3.47;;;22.70;99.90;;;;;;5095854;28;20492;-82
2023/09/20 05:18:18;;;;;;;10.98;4.00;;;22.70;99.90;;;;;;5066872;28;20043;-82
2023/09/20 05:20:48;;;;;;;10.45;3.50;;;22.60;99.90;;;;;;5067009;28;20035;-80
2023/09/20 05:23:14;;;;;;;8.45;3.63;;;22.70;99.90;;;;;;5072018;28;20036;-83
2023/09/20 05:25:40;;;;;;;6.57;2.97;;;22.70;99.90;;;;;;5084095;28;20038;-78
2023/09/20 05:28:06;;;;;;;10.10;3.30;;;22.60;99.90;;;;;;5096141;28;20043;-78
2023/09/20 05:30:32;;;;;;;7.22;3.10;;;22.60;99.90;;;;;;5074611;28;20047;-79
2023/09/20 05:32:58;;;;;;;8.15;3.50;;;22.70;99.90;;;;;;5066714;28;20078;-80
2023/09/20 05:35:28;;;;;;;10.30;3.67;;;22.80;99.90;;;;;;5067498;28;20023;-81
2023/09/20 05:37:54;;;;;;;6.68;3.28;;;22.80;99.90;;;;;;5066391;28;20074;-81
2023/09/20 05:40:21;;;;;;;6.65;3.33;;;22.70;99.90;;;;;;5074072;28;20059;-83
2023/09/20 05:42:50;;;;;;;7.22;3.17;;;23.00;99.90;;;;;;5079143;28;20035;-84
2023/09/20 05:45:19;;;;;;;8.00;2.85;;;22.80;99.90;;;;;;5072853;28;20392;-80
2023/09/20 05:47:45;;;;;;;6.20;2.83;;;22.80;99.90;;;;;;5096880;28;20040;-86
2023/09/20 05:50:12;;;;;;;10.15;3.50;;;22.80;99.90;;;;;;5097189;27;20043;-79
2023/09/20 05:52:40;;;;;;;7.90;3.45;;;22.90;99.90;;;;;;5075351;27;20127;-79
2023/09/20 05:55:13;;;;;;;6.63;3.05;;;22.90;99.90;;;;;;5101154;28;20040;-82
2023/09/20 05:57:43;;;;;;;7.40;3.55;;;22.90;99.90;;;;;;5075202;27;20061;-79
2023/09/20 06:00:16;;;;;;;7.00;2.70;;;22.90;99.90;;;;;;5088224;27;20047;-81
2023/09/20 06:02:43;;;;;;;7.75;3.25;;;22.90;99.90;;;;;;5083987;27;20082;-78
2023/09/20 06:05:12;;;;;;;11.93;3.33;;;22.80;99.90;;;;;;5087959;27;20042;-79
2023/09/20 06:07:40;;;;;;;9.50;3.38;;;22.80;99.90;;;;;;5078326;27;20100;-80
2023/09/20 06:10:07;;;;;;;8.07;3.13;;;22.90;99.90;;;;;;5072548;27;21098;-80
2023/09/20 06:12:33;;;;;;;10.75;3.20;;;22.90;99.90;;;;;;5079948;27;20040;-81
2023/09/20 06:14:59;;;;;;;10.23;3.20;;;22.80;99.90;;;;;;5067760;27;20047;-80
2023/09/20 06:17:29;;;;;;;24.63;5.57;;;22.90;99.90;;;;;;5084408;27;20122;-80
2023/09/20 06:19:57;;;;;;;7.20;3.65;;;22.90;99.90;;;;;;5077604;27;20628;-79
2023/09/20 06:22:27;;;;;;;4.60;2.60;;;22.90;99.90;;;;;;5098397;28;20077;-79
2023/09/20 06:24:53;;;;;;;8.98;3.25;;;22.90;99.90;;;;;;5079629;27;20040;-77
2023/09/20 06:27:21;;;;;;;8.95;3.20;;;22.90;99.90;;;;;;5081232;28;20031;-78
2023/09/20 06:29:47;;;;;;;8.50;3.15;;;22.80;99.90;;;;;;5096544;27;20046;-80
2023/09/20 06:32:15;;;;;;;8.20;2.45;;;23.00;99.90;;;;;;5096539;27;20631;-81
2023/09/20 06:34:41;;;;;;;8.27;3.35;;;22.90;99.90;;;;;;5072073;27;20039;-80
2023/09/20 06:37:09;;;;;;;5.85;2.28;;;22.90;99.90;;;;;;5096910;27;20031;-80
2023/09/20 06:39:36;;;;;;;10.05;3.78;;;22.80;99.90;;;;;;5077962;27;20103;-80
2023/09/20 06:42:03;;;;;;;5.60;3.08;;;22.80;99.90;;;;;;5081215;27;20057;-80
2023/09/20 06:44:33;;;;;;;5.75;2.47;;;22.80;99.90;;;;;;5078824;27;20433;-79
2023/09/20 06:46:59;;;;;;;5.88;2.88;;;22.80;99.90;;;;;;5091688;27;20071;-77
2023/09/20 06:49:24;;;;;;;13.65;3.70;;;22.80;99.90;;;;;;5051519;27;20063;-79
2023/09/20 06:51:50;;;;;;;7.95;2.63;;;22.90;99.90;;;;;;5081355;27;20035;-77
2023/09/20 06:54:15;;;;;;;4.53;2.47;;;22.80;99.90;;;;;;5098386;27;20522;-81
2023/09/20 06:56:42;;;;;;;7.38;2.70;;;22.80;99.90;;;;;;5072178;27;20035;-77
2023/09/20 06:59:08;;;;;;;7.43;3.10;;;22.90;99.90;;;;;;5095180;28;20038;-80
2023/09/20 07:01:33;;;;;;;5.93;2.88;;;23.00;99.90;;;;;;5092853;27;20043;-78
2023/09/20 07:03:59;;;;;;;4.70;2.45;;;23.00;99.90;;;;;;5057737;27;20492;-82
2023/09/20 07:06:25;;;;;;;4.15;2.78;;;23.10;99.90;;;;;;5083271;27;20053;-78
2023/09/20 07:08:52;;;;;;;5.85;2.88;;;23.00;99.90;;;;;;5080450;27;20051;-79
2023/09/20 07:11:18;;;;;;;6.88;3.10;;;23.00;99.90;;;;;;5083625;28;20541;-83
2023/09/20 07:13:45;;;;;;;11.80;3.45;;;23.00;99.90;;;;;;5087546;27;20070;-78
2023/09/20 07:16:12;;;;;;;6.40;2.83;;;22.90;99.90;;;;;;5052801;28;20108;-76
2023/09/20 07:18:37;;;;;;;6.22;2.83;;;23.00;99.90;;;;;;5095519;27;20043;-83
2023/09/20 07:21:04;;;;;;;6.40;3.10;;;23.00;99.90;;;;;;5102459;27;20601;-84
2023/09/20 07:23:30;;;;;;;5.70;3.00;;;23.20;99.90;;;;;;5074045;27;20031;-79
2023/09/20 07:25:56;;;;;;;6.70;2.65;;;23.30;99.90;;;;;;5068404;27;20575;-81
2023/09/20 07:28:24;;;;;;;5.65;2.83;;;23.40;99.90;;;;;;5077916;27;20035;-82
2023/09/20 07:30:50;;;;;;;4.35;2.65;;;23.50;99.90;;;;;;5098348;27;20048;-81
2023/09/20 07:33:23;;;;;;;8.05;2.88;;;23.60;99.90;;;;;;5076643;27;20063;-78
2023/09/20 07:35:58;;;;;;;7.00;2.97;;;23.60;99.90;;;;;;5091392;28;20042;-82
2023/09/20 07:38:29;;;;;;;5.72;2.65;;;23.70;99.90;;;;;;5090609;28;20035;-82
2023/09/20 07:41:13;;;;;;;7.35;3.35;;;23.70;99.90;;;;;;5100692;27;20108;-81
2023/09/20 07:43:43;;;;;;;7.33;2.93;;;23.80;99.90;;;;;;5100737;28;20384;-79
2023/09/20 07:46:10;;;;;;;4.68;2.78;;;23.80;99.90;;;;;;5053257;27;20072;-81
2023/09/20 07:48:44;;;;;;;7.43;3.10;;;23.70;99.90;;;;;;5093218;27;20621;-83
2023/09/20 07:51:11;;;;;;;7.93;3.10;;;23.80;99.90;;;;;;5076053;28;20040;-80
2023/09/20 07:53:37;;;;;;;9.30;3.33;;;23.80;99.90;;;;;;5077682;27;20039;-80
2023/09/20 07:56:05;;;;;;;11.60;3.30;;;23.80;99.90;;;;;;5096680;28;20027;-83
2023/09/20 07:58:40;;;;;;;6.20;3.15;;;23.80;99.90;;;;;;5100426;27;20078;-82
2023/09/20 08:01:21;;;;;;;5.18;3.30;;;23.80;99.90;;;;;;5089261;28;20531;-79
2023/09/20 08:03:58;;;;;;;7.63;3.65;;;23.90;99.90;;;;;;5083688;28;20051;-82
2023/09/20 08:06:27;;;;;;;5.97;2.80;;;23.90;99.90;;;;;;5093253;28;20039;-81
2023/09/20 08:08:55;;;;;;;7.90;3.35;;;24.10;99.90;;;;;;5090129;28;20039;-81
2023/09/20 08:11:23;;;;;;;6.18;3.15;;;24.10;99.90;;;;;;5079371;27;20209;-84
2023/09/20 08:13:53;;;;;;;5.20;2.95;;;24.20;99.90;;;;;;5095802;27;20678;-82
2023/09/20 08:16:21;;;;;;;64.32;9.45;;;24.20;99.90;;;;;;5096051;27;20916;-87
2023/09/20 08:21:32;;;;;;;7.13;3.78;;;24.20;99.90;;;;;;5117614;27;20130;-81
2023/09/20 08:59:57;;;;;;;14.18;3.60;;;24.60;99.90;;;;;;5117415;27;20042;-82
2023/09/20 09:02:25;;;;;;;5.75;3.17;;;24.50;99.90;;;;;;5112559;27;20039;-80
2023/09/20 09:04:53;;;;;;;6.80;3.10;;;24.40;99.90;;;;;;5109836;28;20053;-81
2023/09/20 09:07:23;;;;;;;7.30;3.30;;;24.40;99.90;;;;;;5111073;27;20046;-83
2023/09/20 09:09:52;;;;;;;6.28;3.20;;;24.50;99.90;;;;;;5096657;27;20046;-83
2023/09/20 09:12:18;;;;;;;5.90;2.90;;;24.40;99.90;;;;;;5117547;27;20038;-82
2023/09/20 09:14:48;;;;;;;6.70;3.13;;;24.40;99.90;;;;;;5103737;27;20041;-80
2023/09/20 09:17:14;;;;;;;7.88;3.95;;;24.40;99.90;;;;;;5115711;27;20098;-82
2023/09/20 09:19:40;;;;;;;8.20;3.30;;;24.40;99.90;;;;;;5111572;27;20061;-80
2023/09/20 09:22:07;;;;;;;5.60;2.97;;;24.40;99.90;;;;;;5101233;27;20039;-82
2023/09/20 09:24:44;;;;;;;8.77;3.67;;;24.40;99.90;;;;;;5127319;27;20479;-80
2023/09/20 09:27:10;;;;;;;6.95;3.10;;;24.40;99.90;;;;;;5101504;27;20122;-81
2023/09/20 09:29:36;;;;;;;6.60;3.17;;;24.40;99.90;;;;;;5106133;27;20080;-84
2023/09/20 09:32:04;;;;;;;5.72;3.33;;;24.40;99.90;;;;;;5121955;27;20072;-80
2023/09/20 09:34:31;;;;;;;6.18;3.03;;;24.40;99.90;;;;;;5121043;27;20100;-84
2023/09/20 09:36:57;;;;;;;3.65;3.00;;;24.40;99.90;;;;;;5094360;27;20039;-83
2023/09/20 09:39:25;;;;;;;10.60;4.80;;;24.40;99.90;;;;;;5119960;27;20101;-85
2023/09/20 09:41:53;;;;;;;6.53;3.08;;;24.50;99.90;;;;;;5113261;27;20434;-82
2023/09/20 09:44:20;;;;;;;5.70;2.90;;;24.50;99.90;;;;;;5092309;27;20074;-84
2023/09/20 09:46:46;;;;;;;11.88;4.22;;;24.40;99.90;;;;;;5106753;27;20043;-87
2023/09/20 09:49:12;;;;;;;8.63;4.30;;;24.60;99.90;;;;;;5115389;27;20494;-85
2023/09/20 09:51:45;;;;;;;5.72;3.20;;;24.50;99.90;;;;;;5120955;27;20073;-88
2023/09/20 09:54:13;;;;;;;7.45;3.90;;;24.60;99.90;;;;;;5119071;27;20042;-85
2023/09/20 09:56:40;;;;;;;4.93;3.33;;;24.50;99.90;;;;;;5123527;27;20045;-85
2023/09/20 09:59:05;;;;;;;6.43;3.70;;;24.50;99.90;;;;;;5103188;27;20437;-87
2023/09/20 10:01:36;;;;;;;4.38;3.08;;;24.60;99.90;;;;;;5117801;27;20042;-84
2023/09/20 10:04:17;;;;;;;6.30;3.28;;;24.60;99.90;;;;;;5102889;27;20727;-82
2023/09/20 10:07:14;;;;;;;8.05;3.55;;;24.60;99.90;;;;;;5100783;27;20068;-86
2023/09/20 10:09:44;;;;;;;6.13;2.80;;;24.70;99.90;;;;;;5129906;27;20078;-84
2023/09/20 10:12:11;;;;;;;4.28;3.10;;;24.70;99.90;;;;;;5123346;27;20527;-86
2023/09/20 10:14:38;;;;;;;5.63;3.55;;;24.70;99.90;;;;;;5103401;27;20039;-87
2023/09/20 10:17:08;;;;;;;5.82;3.13;;;24.80;99.90;;;;;;5112740;27;20057;-84
2023/09/20 10:19:39;;;;;;;5.53;3.33;;;24.90;99.90;;;;;;5116540;27;20035;-84
2023/09/20 10:22:11;;;;;;;6.18;3.28;;;25.00;99.90;;;;;;5089759;27;20133;-84
2023/09/20 10:25:00;;;;;;;5.53;3.17;;;25.20;99.90;;;;;;5138456;27;20071;-85
2023/09/20 10:27:30;;;;;;;4.63;3.15;;;25.40;99.90;;;;;;5089543;27;20034;-84
2023/09/20 10:30:09;;;;;;;6.85;3.50;;;25.50;99.90;;;;;;5106480;27;20042;-85
2023/09/20 10:32:44;;;;;;;5.72;3.03;;;25.40;99.90;;;;;;5115281;27;20074;-85
2023/09/20 10:35:27;;;;;;;3.35;2.70;;;25.50;99.90;;;;;;5112622;27;20043;-85
2023/09/20 10:38:04;;;;;;;6.13;2.78;;;25.40;99.90;;;;;;5115149;27;20178;-85
2023/09/20 10:40:45;;;;;;;5.30;2.83;;;25.30;99.90;;;;;;5113853;27;20041;-84
2023/09/20 10:43:44;;;;;;;4.07;2.90;;;25.20;99.90;;;;;;5119380;27;20050;-85
2023/09/20 10:46:13;;;;;;;4.97;3.10;;;25.20;99.90;;;;;;5106774;27;20039;-83
2023/09/20 10:48:48;;;;;;;3.58;2.60;;;25.30;99.90;;;;;;5127697;27;20208;-85
2023/09/20 10:51:43;;;;;;;5.07;2.50;;;25.30;99.90;;;;;;5116879;27;20514;-84
2023/09/20 10:54:34;;;;;;;4.53;2.50;;;25.40;99.90;;;;;;5106787;27;20039;-85
2023/09/20 10:57:05;;;;;;;6.28;2.55;;;25.50;99.90;;;;;;5157239;27;20037;-84
2023/09/20 10:59:32;;;;;;;4.40;2.60;;;25.70;99.90;;;;;;5109440;27;20081;-86
2023/09/20 11:02:09;;;;;;;3.67;2.20;;;25.60;99.90;;;;;;5113760;27;20038;-87
2023/09/20 11:04:38;;;;;;;4.05;2.45;;;25.70;99.90;;;;;;5116423;27;20106;-85
2023/09/20 11:07:05;;;;;;;3.05;2.30;;;25.70;99.90;;;;;;5100687;27;20034;-86
2023/09/20 11:09:31;;;;;;;4.85;2.50;;;25.50;99.90;;;;;;5105079;27;20122;-85
2023/09/20 11:12:04;;;;;;;5.43;2.25;;;25.50;99.90;;;;;;5115919;27;20034;-84
2023/09/20 11:14:34;;;;;;;4.70;2.40;;;25.50;99.90;;;;;;5114435;27;20066;-82
2023/09/20 11:17:02;;;;;;;6.30;2.20;;;25.40;99.90;;;;;;5115196;27;20051;-84
2023/09/20 11:19:28;;;;;;;5.32;2.05;;;25.40;99.90;;;;;;5138070;27;20082;-84
2023/09/20 11:21:55;;;;;;;6.70;2.70;;;25.30;99.90;;;;;;5117564;27;20035;-85
2023/09/20 11:24:25;;;;;;;6.70;2.28;;;25.30;99.90;;;;;;5107833;27;20130;-85
2023/09/20 11:26:53;;;;;;;4.45;2.17;;;25.30;99.90;;;;;;5117248;27;20131;-83
2023/09/20 11:29:20;;;;;;;4.43;2.28;;;25.20;99.90;;;;;;5102589;27;20118;-85
2023/09/20 11:31:46;;;;;;;4.32;2.05;;;25.20;99.90;;;;;;5095750;27;20535;-80
2023/09/20 11:34:17;;;;;;;4.10;2.30;;;25.30;99.90;;;;;;5111549;27;20122;-82
2023/09/20 11:36:53;;;;;;;4.70;1.85;;;25.30;99.90;;;;;;5104663;27;20035;-84
2023/09/20 11:39:28;;;;;;;4.22;1.85;;;25.40;99.90;;;;;;5125750;27;20042;-81
2023/09/20 11:42:00;;;;;;;;;;;25.30;99.90;;;;;;5109190;27;20034;-84
2023/09/20 11:44:26;;;;;;;7.03;2.28;;;25.40;99.90;;;;;;5124861;27;19922;-83
2023/09/20 11:46:55;;;;;;;4.70;2.33;;;25.40;99.90;;;;;;5079093;27;20491;-84
2023/09/20 11:49:22;;;;;;;4.85;2.38;;;25.50;99.90;;;;;;5119966;27;20056;-84
2023/09/20 11:51:50;;;;;;;2.92;1.90;;;25.60;99.90;;;;;;5119579;27;20033;-83
2023/09/20 11:54:15;;;;;;;3.75;2.03;;;25.60;99.90;;;;;;5124638;27;21953;-84
2023/09/20 11:56:47;;;;;;;6.43;2.40;;;25.60;99.90;;;;;;5139623;27;20122;-83
2023/09/20 11:59:18;;;;;;;4.07;2.17;;;25.60;99.90;;;;;;5123758;27;20057;-84
2023/09/20 12:01:45;;;;;;;3.83;2.03;;;25.60;99.90;;;;;;5136465;27;20039;-83
2023/09/20 12:04:12;;;;;;;4.63;2.28;;;25.60;99.90;;;;;;5136972;27;20042;-86
2023/09/20 12:06:38;;;;;;;3.47;2.13;;;25.70;99.90;;;;;;5113065;27;20081;-82
2023/09/20 12:09:09;;;;;;;4.35;2.45;;;25.60;99.90;;;;;;5106448;27;20078;-84
2023/09/20 12:11:38;;;;;;;3.20;2.35;;;25.60;99.90;;;;;;5098913;27;20027;-84
2023/09/20 12:14:04;;;;;;;4.00;2.10;;;25.50;99.90;;;;;;5081439;27;20098;-86
2023/09/20 12:16:31;;;;;;;4.15;2.25;;;25.70;99.90;;;;;;5101257;27;20038;-86
2023/09/20 12:18:58;;;;;;;5.28;2.88;;;25.70;99.90;;;;;;5096330;27;20104;-81
2023/09/20 12:21:25;;;;;;;3.25;2.50;;;25.60;99.90;;;;;;5109747;27;20034;-82
2023/09/20 12:23:51;;;;;;;5.78;2.70;;;25.70;99.90;;;;;;5112330;27;20047;-83
2023/09/20 12:26:17;;;;;;;2.75;2.30;;;25.70;99.90;;;;;;5103703;27;20058;-84
2023/09/20 12:28:44;;;;;;;4.43;2.20;;;25.80;99.90;;;;;;5098788;27;20164;-83
2023/09/20 12:31:11;;;;;;;4.35;2.42;;;25.90;99.90;;;;;;5088527;27;20333;-85
2023/09/20 12:33:37;;;;;;;3.60;2.33;;;25.90;99.90;;;;;;5101868;27;20031;-83
2023/09/20 12:36:04;;;;;;;3.80;2.35;;;26.00;99.90;;;;;;5098532;27;20042;-85
2023/09/20 12:38:30;;;;;;;5.13;2.50;;;26.00;99.90;;;;;;5076291;27;20070;-85
2023/09/20 12:40:59;;;;;;;4.72;2.70;;;26.10;99.90;;;;;;5122542;27;20066;-89
2023/09/20 12:43:28;;;;;;;3.60;2.38;;;26.20;99.90;;;;;;5108643;27;20482;-87
2023/09/20 12:45:54;;;;;;;4.68;2.47;;;26.20;99.90;;;;;;5106294;27;20125;-86
2023/09/20 12:48:22;;;;;;;5.18;2.70;;;26.20;99.90;;;;;;5110190;27;20114;-86
2023/09/20 12:50:47;;;;;;;4.00;2.40;;;26.20;99.90;;;;;;5106004;27;20034;-82
2023/09/20 12:53:16;;;;;;;3.13;2.45;;;26.20;99.90;;;;;;5118857;27;20139;-83
2023/09/20 12:55:42;;;;;;;3.38;2.47;;;26.30;99.90;;;;;;5097070;27;20691;-85
2023/09/20 12:58:10;;;;;;;5.43;2.80;;;26.30;99.90;;;;;;5128692;27;20049;-83
2023/09/20 13:00:42;;;;;;;4.88;3.00;;;26.20;99.90;;;;;;5114248;27;20035;-84
2023/09/20 13:03:08;;;;;;;4.28;2.35;;;26.30;99.90;;;;;;5123237;27;20034;-85
2023/09/20 13:05:35;;;;;;;5.65;2.67;;;26.60;99.90;;;;;;5098749;27;20054;-87
2023/09/20 13:08:00;;;;;;;7.65;3.10;;;26.40;99.90;;;;;;5135725;27;20053;-85
2023/09/20 13:10:27;;;;;;;4.85;2.90;;;26.50;99.90;;;;;;5099496;27;20035;-87
2023/09/20 13:12:53;;;;;;;5.07;2.65;;;26.60;99.90;;;;;;5082462;27;20039;-85
2023/09/20 13:15:20;;;;;;;3.95;2.67;;;26.50;99.90;;;;;;5110822;27;20027;-87
2023/09/20 13:17:51;;;;;;;5.60;3.00;;;26.60;99.90;;;;;;5107329;27;20506;-86
2023/09/20 13:20:18;;;;;;;5.00;3.00;;;26.60;99.90;;;;;;5130689;27;20039;-87
2023/09/20 13:22:55;;;;;;;4.30;2.60;;;26.50;99.90;;;;;;5116259;27;20390;-86
2023/09/20 13:25:21;;;;;;;4.95;2.88;;;26.50;99.90;;;;;;5110923;27;20045;-88
2023/09/20 13:27:50;;;;;;;4.10;2.60;;;26.10;99.90;;;;;;5107547;27;20094;-86
2023/09/20 13:30:17;;;;;;;4.05;3.05;;;26.50;99.90;;;;;;5096162;27;20043;-86
2023/09/20 13:32:44;;;;;;;6.95;3.03;;;26.50;99.90;;;;;;5091214;27;20031;-87